Terminal Aerodrome Forecast
Issued by NWS Wilmington, OH

Home | Current Version | Previous Version | Text Only | Print | Product List | Glossary On
Versions: 1 2 3 4 5 6 7 8 9 10 11 12 13 14 15 16 17 18 19 20 21
000
FTUS41 KILN 221504 AAB
TAFILN
TAF AMD
KILN 221504Z 2215/2312 17005KT 1 1/2SM BR VCSH OVC003
     FM221600 19006KT 2SM BR OVC006
     FM221700 20006KT 5SM BR OVC009
     FM221900 21007KT P6SM OVC015
     FM222000 20007KT P6SM BKN025
     FM230300 20006KT 4SM BR OVC011=

USA.gov is the U.S. government's official web portal to all federal, state and local government web resources and services.